Time;durP1;ratioP1;P1;durP2;ratioP2;P2;SDS_P1;SDS_P2;PMS_P1;PMS_P2;Temp;Humidity;BMP_temperature;BMP_pressure;BME280_temperature;BME280_humidity;BME280_pressure;Samples;Min_cycle;Max_cycle;Signal;HPM_P1;HPM_P2
2023/06/05 00:00:53;;;;;;;9.32;6.25;;;;;;;14.37;83.25;94403.84;5144597;27;20027;-83
2023/06/05 00:03:18;;;;;;;14.73;6.65;;;;;;;14.36;83.37;94396.13;5144533;27;20086;-82
2023/06/05 00:05:44;;;;;;;8.48;6.15;;;;;;;14.33;83.29;94400.22;5144129;27;20217;-81
2023/06/05 00:08:09;;;;;;;8.90;5.97;;;;;;;14.31;83.29;94393.59;5144611;27;20035;-82
2023/06/05 00:10:35;;;;;;;12.50;6.05;;;;;;;14.32;83.16;94400.53;5144707;27;20038;-82
2023/06/05 00:13:00;;;;;;;8.88;5.50;;;;;;;14.30;82.99;94397.41;5144317;27;20221;-83
2023/06/05 00:15:26;;;;;;;11.27;5.70;;;;;;;14.26;83.06;94405.31;5144264;27;20034;-83
2023/06/05 00:17:51;;;;;;;8.18;5.50;;;;;;;14.25;82.83;94401.84;5144152;27;20045;-83
2023/06/05 00:20:17;;;;;;;8.45;5.57;;;;;;;14.18;83.25;94401.53;5144199;27;20216;-83
2023/06/05 00:22:44;;;;;;;9.52;5.60;;;;;;;14.07;83.64;94411.06;5143909;27;20248;-84
2023/06/05 00:25:10;;;;;;;7.82;5.82;;;;;;;14.09;83.64;94403.50;5125768;27;20027;-85
2023/06/05 00:27:35;;;;;;;10.75;6.47;;;;;;;14.07;83.88;94397.66;5144060;27;20082;-83
2023/06/05 00:30:01;;;;;;;16.17;6.88;;;;;;;14.09;83.84;94400.81;5125772;27;20309;-83
2023/06/05 00:32:27;;;;;;;8.95;5.72;;;;;;;14.11;83.72;94403.16;5125744;27;20015;-83
2023/06/05 00:34:52;;;;;;;9.63;6.53;;;;;;;14.10;83.89;94404.25;5144132;27;20209;-83
2023/06/05 00:37:20;;;;;;;9.73;5.70;;;;;;;14.10;83.95;94398.91;5143855;27;20015;-83
2023/06/05 00:39:45;;;;;;;7.80;5.70;;;;;;;14.13;83.82;94399.06;5144039;27;20019;-84
2023/06/05 00:42:11;;;;;;;7.25;4.82;;;;;;;14.13;83.84;94406.31;5143832;27;20049;-83
2023/06/05 00:44:37;;;;;;;10.60;5.93;;;;;;;14.11;83.80;94390.56;5144053;27;20187;-84
2023/06/05 00:47:03;;;;;;;10.43;5.07;;;;;;;14.12;83.82;94397.47;5143896;27;20015;-84
2023/06/05 00:49:29;;;;;;;7.25;5.65;;;;;;;14.18;83.54;94379.31;5143944;27;20019;-84
2023/06/05 00:51:57;;;;;;;10.30;5.38;;;;;;;14.19;83.52;94370.19;5125480;27;20059;-84
2023/06/05 00:54:22;;;;;;;7.50;4.90;;;;;;;14.22;83.31;94381.03;5143707;27;20019;-84
2023/06/05 00:56:48;;;;;;;12.18;5.30;;;;;;;14.26;83.15;94383.84;5143836;27;20047;-83
2023/06/05 00:59:14;;;;;;;8.38;5.10;;;;;;;14.27;83.27;94373.91;5143727;27;20019;-83
2023/06/05 01:01:42;;;;;;;6.78;4.60;;;;;;;14.32;83.02;94384.47;5143437;27;20254;-83
2023/06/05 01:04:08;;;;;;;12.88;5.25;;;;;;;14.29;83.01;94369.00;5143973;27;20027;-85
2023/06/05 01:06:35;;;;;;;10.68;5.57;;;;;;;14.28;82.91;94375.50;5144038;28;20060;-85
2023/06/05 01:09:02;;;;;;;10.27;5.53;;;;;;;14.22;83.06;94375.66;5143727;28;20023;-85
2023/06/05 01:11:42;;;;;;;9.85;5.30;;;;;;;14.24;83.08;94357.34;5143853;28;20045;-85
2023/06/05 01:14:17;;;;;;;7.43;4.97;;;;;;;14.25;83.06;94353.59;5143558;28;20294;-85
2023/06/05 01:16:47;;;;;;;13.60;6.13;;;;;;;14.24;83.33;94367.31;5125256;28;20019;-85
2023/06/05 01:19:14;;;;;;;12.25;5.93;;;;;;;14.22;83.40;94362.25;5143717;28;20023;-86
2023/06/05 01:21:40;;;;;;;10.63;6.18;;;;;;;14.24;83.52;94367.31;5143680;28;20019;-85
2023/06/05 01:24:05;;;;;;;12.48;6.32;;;;;;;14.24;83.43;94356.56;5143555;28;20080;-84
2023/06/05 01:26:52;;;;;;;12.52;5.85;;;;;;;14.20;83.83;94367.16;5143460;28;20015;-84
2023/06/05 01:29:24;;;;;;;12.02;6.40;;;;;;;14.17;83.90;94362.44;5143781;28;20015;-85
2023/06/05 01:31:54;;;;;;;9.73;6.95;;;;;;;14.15;83.78;94353.94;5125187;28;20047;-85
2023/06/05 01:34:21;;;;;;;10.68;6.65;;;;;;;14.15;83.85;94353.94;5143543;28;20043;-85
2023/06/05 01:36:47;;;;;;;11.30;7.38;;;;;;;14.12;83.98;94357.25;5143227;28;20246;-84
2023/06/05 01:39:14;;;;;;;12.35;7.38;;;;;;;14.12;83.99;94359.94;5143146;28;20035;-83
2023/06/05 01:41:41;;;;;;;15.70;8.50;;;;;;;14.12;83.81;94354.59;5143440;28;20303;-83
2023/06/05 01:44:08;;;;;;;16.00;7.22;;;;;;;14.10;83.91;94350.66;5143336;28;20018;-84
2023/06/05 01:46:35;;;;;;;12.45;7.90;;;;;;;14.09;84.11;94354.47;5143231;28;20030;-84
2023/06/05 01:49:02;;;;;;;13.30;7.93;;;;;;;14.06;84.32;94350.50;5143008;28;20068;-84
2023/06/05 01:51:28;;;;;;;13.95;6.50;;;;;;;14.05;84.48;94343.59;5142840;28;20033;-83
2023/06/05 01:53:54;;;;;;;12.68;7.32;;;;;;;14.05;84.29;94346.28;5142983;28;20031;-85
2023/06/05 01:56:19;;;;;;;11.80;7.00;;;;;;;14.04;84.36;94347.38;5143405;28;20030;-86
2023/06/05 01:58:46;;;;;;;13.55;6.47;;;;;;;14.05;84.21;94343.59;5143489;28;20086;-85
2023/06/05 02:01:15;;;;;;;10.23;6.57;;;;;;;14.01;83.86;94337.31;5143170;28;20026;-84
2023/06/05 02:03:47;;;;;;;10.40;6.78;;;;;;;13.99;83.69;94350.25;5142995;28;20218;-83
2023/06/05 02:06:14;;;;;;;12.25;7.55;;;;;;;13.98;83.61;94337.94;5126770;27;20214;-84
2023/06/05 02:08:39;;;;;;;14.30;7.03;;;;;;;13.93;83.89;94338.91;5146819;27;20015;-85
2023/06/05 02:11:10;;;;;;;11.25;6.85;;;;;;;13.93;84.19;94335.44;5147272;27;20366;-86
2023/06/05 02:13:40;;;;;;;14.65;8.57;;;;;;;13.92;84.56;94344.59;5146809;27;20011;-84
2023/06/05 02:16:08;;;;;;;16.20;8.98;;;;;;;13.91;85.05;94351.06;5146893;27;20026;-84
2023/06/05 02:18:37;;;;;;;14.23;9.18;;;;;;;13.94;85.41;94348.53;5128402;27;20224;-83
2023/06/05 02:21:03;;;;;;;11.48;9.00;;;;;;;13.91;85.66;94348.38;5146326;27;20015;-83
2023/06/05 02:23:28;;;;;;;11.93;8.88;;;;;;;13.87;86.25;94352.81;5146300;27;20045;-84
2023/06/05 02:25:54;;;;;;;12.13;8.73;;;;;;;13.88;86.43;94349.00;5146715;27;20015;-83
2023/06/05 02:28:20;;;;;;;17.20;8.50;;;;;;;13.85;86.54;94351.22;5146449;27;20050;-82
2023/06/05 02:30:47;;;;;;;16.45;9.52;;;;;;;13.84;86.97;94349.66;5146676;27;20050;-85
2023/06/05 02:33:14;;;;;;;15.35;9.50;;;;;;;13.85;87.15;94351.22;5146526;27;20054;-85
2023/06/05 02:36:32;;;;;;;17.27;11.25;;;;;;;13.90;87.47;94341.44;5146242;27;20105;-85
2023/06/05 02:39:01;;;;;;;14.98;8.90;;;;;;;13.87;87.10;94345.56;5128095;27;20210;-81
2023/06/05 02:41:27;;;;;;;20.98;9.20;;;;;;;13.80;87.10;94351.41;5145499;27;20019;-82
2023/06/05 02:43:54;;;;;;;12.82;8.90;;;;;;;13.81;86.72;94344.16;5145075;27;20023;-82
2023/06/05 02:46:21;;;;;;;17.38;9.45;;;;;;;13.84;85.93;94355.03;5145864;27;20026;-82
2023/06/05 02:48:46;;;;;;;16.05;11.40;;;;;;;13.84;86.88;94349.66;5145983;27;20144;-84
2023/06/05 02:51:12;;;;;;;16.42;10.40;;;;;;;13.85;87.55;94350.44;5127347;27;20043;-85
2023/06/05 02:53:38;;;;;;;15.70;10.60;;;;;;;13.83;87.40;94341.94;5146135;27;20068;-85
2023/06/05 02:56:04;;;;;;;17.35;11.18;;;;;;;13.83;87.53;94356.13;5145757;27;20019;-85
2023/06/05 02:58:31;;;;;;;21.63;10.68;;;;;;;13.82;87.32;94343.06;5145946;27;20224;-85
2023/06/05 03:01:01;;;;;;;14.85;9.55;;;;;;;13.84;87.21;94351.56;5127574;27;20090;-87
2023/06/05 03:03:31;;;;;;;14.30;10.35;;;;;;;13.80;86.90;94346.06;5146619;27;20225;-88
2023/06/05 03:06:03;;;;;;;16.33;9.98;;;;;;;13.77;86.59;94354.72;5146779;27;20049;-88
2023/06/05 03:08:30;;;;;;;14.48;9.13;;;;;;;13.80;85.92;94362.13;5146509;27;20067;-88
2023/06/05 03:10:56;;;;;;;18.13;10.00;;;;;;;13.77;85.72;94360.09;5128300;27;20030;-88
2023/06/05 03:13:21;;;;;;;18.75;9.98;;;;;;;13.76;85.88;94363.88;5127939;27;20094;-85
2023/06/05 03:15:46;;;;;;;16.48;10.15;;;;;;;13.80;85.74;94367.50;5145526;27;20023;-85
2023/06/05 03:18:12;;;;;;;22.58;11.88;;;;;;;13.84;85.96;94363.06;5144334;27;20043;-86
2023/06/05 03:20:38;;;;;;;20.23;11.18;;;;;;;13.83;86.33;94368.75;5145543;27;20313;-86
2023/06/05 03:23:03;;;;;;;20.58;10.55;;;;;;;13.87;86.44;94366.22;5145210;27;20076;-82
2023/06/05 03:25:29;;;;;;;22.38;11.05;;;;;;;13.93;86.43;94367.59;5145375;27;20027;-84
2023/06/05 03:27:55;;;;;;;19.52;12.35;;;;;;;13.97;87.10;94374.69;5145328;27;20052;-84
2023/06/05 03:30:20;;;;;;;28.00;14.32;;;;;;;14.04;87.99;94383.03;5145317;27;20030;-83
2023/06/05 03:32:47;;;;;;;23.98;15.68;;;;;;;14.09;88.54;94382.03;5145196;27;20015;-84
2023/06/05 03:35:12;;;;;;;21.08;12.73;;;;;;;14.16;88.46;94368.91;5144955;27;20015;-84
2023/06/05 03:37:37;;;;;;;18.35;12.07;;;;;;;14.22;88.41;94375.66;5145171;27;20021;-84
2023/06/05 03:40:04;;;;;;;18.95;11.75;;;;;;;14.29;88.41;94374.38;5144809;27;20042;-83
2023/06/05 03:42:30;;;;;;;16.92;11.77;;;;;;;14.34;88.58;94371.50;5144997;27;20028;-84
2023/06/05 03:44:55;;;;;;;19.50;12.38;;;;;;;14.40;88.46;94380.94;5145175;27;20098;-82
2023/06/05 03:47:21;;;;;;;19.33;12.57;;;;;;;14.42;88.27;94381.41;5145128;27;20019;-83
2023/06/05 03:49:47;;;;;;;17.15;11.48;;;;;;;14.47;88.37;94381.22;5145040;27;20015;-82
2023/06/05 03:52:14;;;;;;;18.70;12.15;;;;;;;14.51;88.47;94376.78;5144924;27;20015;-82
2023/06/05 03:54:40;;;;;;;18.48;11.35;;;;;;;14.52;88.43;94378.34;5144864;27;20044;-83
2023/06/05 03:57:09;;;;;;;18.98;12.25;;;;;;;14.59;88.11;94377.84;5145021;27;20269;-82
2023/06/05 03:59:35;;;;;;;19.35;11.85;;;;;;;14.68;88.06;94377.81;5144571;27;20329;-82
2023/06/05 04:02:00;;;;;;;20.10;11.68;;;;;;;14.72;87.91;94387.56;5144776;27;20022;-82
2023/06/05 04:04:26;;;;;;;21.50;12.70;;;;;;;14.77;87.81;94383.91;5144727;27;20019;-82
2023/06/05 04:06:54;;;;;;;21.90;12.75;;;;;;;14.78;87.99;94380.13;5144599;27;20038;-82
2023/06/05 04:09:20;;;;;;;20.60;12.68;;;;;;;14.85;87.66;94366.97;5144784;27;20015;-87
2023/06/05 04:11:45;;;;;;;20.67;12.63;;;;;;;14.96;87.00;94373.50;5145025;27;20018;-87
2023/06/05 04:14:11;;;;;;;17.83;11.85;;;;;;;15.00;87.10;94377.13;5126491;27;20093;-85
2023/06/05 04:16:38;;;;;;;22.63;14.45;;;;;;;15.06;86.22;94385.72;5144767;27;20032;-87
2023/06/05 04:19:09;;;;;;;25.95;13.20;;;;;;;15.13;85.86;94374.50;5126143;27;20030;-86
2023/06/05 04:21:35;;;;;;;23.13;12.70;;;;;;;15.14;85.68;94381.41;5144507;27;20027;-86
2023/06/05 04:24:03;;;;;;;31.70;14.88;;;;;;;15.16;85.69;94381.88;5144264;27;20047;-86
2023/06/05 04:26:28;;;;;;;17.05;11.60;;;;;;;15.14;85.72;94384.09;5144288;27;20102;-82
2023/06/05 04:28:55;;;;;;;21.25;11.93;;;;;;;15.10;85.55;94389.34;5143396;27;20064;-82
2023/06/05 04:31:21;;;;;;;20.15;11.88;;;;;;;15.06;85.93;94380.34;5144117;27;20019;-82
2023/06/05 04:33:46;;;;;;;31.10;14.70;;;;;;;15.05;86.68;94384.94;5144044;27;20054;-81
2023/06/05 04:36:12;;;;;;;24.67;15.20;;;;;;;15.02;86.99;94382.94;5143887;27;20018;-82
2023/06/05 04:38:38;;;;;;;29.15;16.13;;;;;;;15.02;87.29;94380.25;5144400;27;20019;-88
2023/06/05 04:41:04;;;;;;;37.35;17.48;;;;;;;15.05;87.59;94376.91;5144575;27;20027;-88
2023/06/05 04:43:29;;;;;;;32.95;17.77;;;;;;;15.06;87.42;94372.31;5144713;27;20026;-88
2023/06/05 04:45:55;;;;;;;25.40;18.27;;;;;;;15.07;87.26;94381.94;5144835;27;20019;-88
2023/06/05 04:48:20;;;;;;;29.60;17.70;;;;;;;15.14;86.97;94378.72;5125780;27;20026;-84
2023/06/05 04:50:47;;;;;;;29.00;18.65;;;;;;;15.16;87.31;94380.00;5143465;27;20011;-84
2023/06/05 04:53:12;;;;;;;36.45;17.83;;;;;;;15.22;86.88;94378.69;5143682;27;20015;-84
2023/06/05 04:55:37;;;;;;;27.95;17.05;;;;;;;15.32;86.76;94382.06;5143796;27;20011;-84
2023/06/05 04:58:04;;;;;;;25.83;17.65;;;;;;;15.34;86.12;94380.59;5143719;27;20313;-85
2023/06/05 05:00:29;;;;;;;22.73;16.58;;;;;;;15.35;86.39;94384.88;5143638;27;20046;-85
2023/06/05 05:02:55;;;;;;;36.72;17.90;;;;;;;15.35;86.71;94389.47;5143771;27;20341;-85
2023/06/05 05:05:20;;;;;;;33.78;17.33;;;;;;;15.36;86.71;94388.34;5143711;27;20264;-84
2023/06/05 05:07:46;;;;;;;28.50;18.55;;;;;;;15.40;86.49;94381.97;5143576;28;20213;-86
2023/06/05 05:10:12;;;;;;;36.65;18.88;;;;;;;15.45;86.30;94383.69;5144065;28;20313;-87
2023/06/05 05:12:38;;;;;;;26.30;16.75;;;;;;;15.55;85.73;94382.47;5143939;28;20015;-87
2023/06/05 05:15:04;;;;;;;27.67;16.73;;;;;;;15.64;85.13;94372.41;5125479;28;20046;-87
2023/06/05 05:17:33;;;;;;;22.48;15.10;;;;;;;15.68;84.60;94381.38;5124948;28;20019;-84
2023/06/05 05:19:58;;;;;;;32.90;15.95;;;;;;;15.71;84.26;94375.34;5125043;28;20050;-86
2023/06/05 05:22:25;;;;;;;27.30;15.60;;;;;;;15.76;83.96;94377.84;5143298;28;20348;-85
2023/06/05 05:24:51;;;;;;;28.92;15.40;;;;;;;15.84;84.59;94376.97;5143628;28;20046;-86
2023/06/05 05:27:16;;;;;;;31.20;16.80;;;;;;;15.96;85.20;94378.13;5143862;28;20016;-87
2023/06/05 05:29:41;;;;;;;29.05;16.90;;;;;;;16.12;84.84;94381.72;5143706;28;20018;-87
2023/06/05 05:32:07;;;;;;;26.55;13.95;;;;;;;16.31;84.38;94377.69;5143969;28;20344;-87
2023/06/05 05:34:33;;;;;;;21.33;14.55;;;;;;;16.50;83.98;94371.75;5143253;28;20099;-84
2023/06/05 05:36:59;;;;;;;22.95;14.95;;;;;;;16.70;82.70;94378.13;5143362;28;20354;-84
2023/06/05 05:39:25;;;;;;;26.45;15.02;;;;;;;16.88;81.50;94379.47;5143191;27;20015;-84
2023/06/05 05:41:50;;;;;;;26.52;14.40;;;;;;;17.00;81.69;94382.13;5146615;27;20015;-83
2023/06/05 05:44:16;;;;;;;25.85;13.45;;;;;;;17.13;81.27;94374.78;5146974;27;20313;-84
2023/06/05 05:46:41;;;;;;;20.17;12.80;;;;;;;17.26;80.56;94362.06;5128665;27;20118;-83
2023/06/05 05:49:06;;;;;;;22.10;14.88;;;;;;;17.35;79.13;94370.00;5147160;27;20055;-84
2023/06/05 05:51:33;;;;;;;23.92;13.77;;;;;;;17.45;78.78;94372.97;5147086;27;20305;-85
2023/06/05 05:53:59;;;;;;;19.42;13.93;;;;;;;17.60;78.80;94370.66;5147051;27;20102;-85
2023/06/05 05:56:24;;;;;;;23.33;13.50;;;;;;;17.70;78.98;94370.16;5146899;27;20027;-85
2023/06/05 05:58:49;;;;;;;24.05;12.82;;;;;;;17.88;79.12;94364.47;5147000;27;20023;-85
2023/06/05 06:01:15;;;;;;;16.95;11.10;;;;;;;18.10;77.33;94371.97;5128320;27;20095;-84
2023/06/05 06:03:40;;;;;;;23.25;11.77;;;;;;;18.27;76.77;94376.22;5128562;27;20031;-85
2023/06/05 06:06:07;;;;;;;19.50;11.65;;;;;;;18.51;75.65;94375.25;5146742;27;20373;-84
2023/06/05 06:08:33;;;;;;;22.13;12.13;;;;;;;18.73;74.55;94370.34;5147387;27;20248;-85
2023/06/05 06:10:59;;;;;;;19.73;11.13;;;;;;;18.99;73.58;94372.47;5147243;27;20099;-86
2023/06/05 06:13:24;;;;;;;22.73;10.90;;;;;;;19.16;73.43;94377.47;5146875;27;20027;-86
2023/06/05 06:15:50;;;;;;;23.77;11.30;;;;;;;19.36;72.52;94375.56;5146517;27;20309;-87
2023/06/05 06:18:16;;;;;;;17.40;9.48;;;;;;;19.52;70.54;94367.38;5128065;27;20041;-86
2023/06/05 06:20:41;;;;;;;19.42;10.68;;;;;;;19.64;70.14;94366.41;5128350;27;20257;-86
2023/06/05 06:23:07;;;;;;;15.18;10.10;;;;;;;19.83;70.11;94377.25;5127954;27;20051;-78
2023/06/05 06:25:32;;;;;;;27.88;11.35;;;;;;;19.97;69.27;94368.59;5127771;27;20102;-85
2023/06/05 06:27:59;;;;;;;26.80;11.70;;;;;;;20.07;68.93;94366.41;5146357;27;20098;-85
2023/06/05 06:30:25;;;;;;;23.30;9.98;;;;;;;20.13;68.39;94363.06;5146419;27;20274;-79
2023/06/05 06:32:51;;;;;;;16.17;11.30;;;;;;;20.24;68.01;94364.00;5146128;27;20064;-77
2023/06/05 06:35:17;;;;;;;14.73;10.27;;;;;;;20.31;67.83;94362.56;5146248;27;20023;-79
2023/06/05 06:37:42;;;;;;;21.58;10.30;;;;;;;20.36;68.42;94359.56;5146920;27;20017;-90
2023/06/05 06:40:09;;;;;;;16.80;11.60;;;;;;;20.31;68.44;94357.94;5148505;27;20019;-91
2023/06/05 06:42:35;;;;;;;21.65;11.25;;;;;;;20.31;68.40;94354.44;5148707;27;20023;-83
2023/06/05 06:45:01;;;;;;;19.48;10.13;;;;;;;20.38;67.34;94357.28;5146465;27;20095;-82
2023/06/05 06:47:26;;;;;;;17.55;10.32;;;;;;;20.42;67.68;94355.41;5128181;27;20023;-81
2023/06/05 06:49:52;;;;;;;14.90;10.65;;;;;;;20.59;66.56;94349.50;5145988;27;20240;-81
2023/06/05 06:52:19;;;;;;;23.23;10.40;;;;;;;20.74;66.90;94355.09;5145851;27;20042;-82
2023/06/05 06:54:45;;;;;;;20.70;11.73;;;;;;;20.79;65.70;94344.75;5145886;27;20030;-85
2023/06/05 06:57:11;;;;;;;21.48;11.73;;;;;;;20.99;64.36;94342.69;5146263;27;20027;-76
2023/06/05 06:59:40;;;;;;;17.17;11.55;;;;;;;21.14;63.73;94345.59;5145765;27;20106;-76
2023/06/05 07:02:19;;;;;;;17.90;11.30;;;;;;;21.25;62.60;94332.97;5145850;27;20064;-77
2023/06/05 07:04:46;;;;;;;16.80;10.52;;;;;;;21.38;63.07;94342.38;5145646;27;20062;-77
2023/06/05 07:07:14;;;;;;;22.85;13.23;;;;;;;21.53;62.99;94334.44;5145893;27;20067;-76
2023/06/05 07:09:43;;;;;;;23.27;12.43;;;;;;;21.62;63.55;94340.38;5145854;27;20081;-77
2023/06/05 07:12:14;;;;;;;18.80;10.70;;;;;;;21.70;60.97;94342.00;5145452;27;20089;-76
2023/06/05 07:14:40;;;;;;;23.38;11.80;;;;;;;21.71;60.83;94337.34;5145486;27;20313;-77
2023/06/05 07:17:06;;;;;;;19.25;10.50;;;;;;;21.59;60.77;94335.66;5127297;27;20050;-78
2023/06/05 07:19:32;;;;;;;18.20;10.63;;;;;;;21.61;60.72;94338.78;5145611;27;20034;-85
2023/06/05 07:21:59;;;;;;;20.85;12.80;;;;;;;21.49;60.18;94339.03;5145211;27;20251;-79
2023/06/05 07:24:26;;;;;;;22.15;12.07;;;;;;;21.56;60.80;94339.13;5145394;27;20229;-77
2023/06/05 07:26:56;;;;;;;17.67;10.98;;;;;;;21.70;60.68;94333.09;5126839;27;20094;-76
2023/06/05 07:29:24;;;;;;;25.10;11.10;;;;;;;21.81;59.74;94342.88;5145466;27;20064;-76
2023/06/05 07:31:50;;;;;;;18.13;11.93;;;;;;;21.88;59.53;94344.09;5145495;27;20174;-75
2023/06/05 07:34:21;;;;;;;18.48;11.68;;;;;;;21.95;58.19;94349.59;5127057;27;20305;-75
2023/06/05 07:36:48;;;;;;;20.50;11.77;;;;;;;21.90;59.01;94349.94;5145187;27;20023;-74
2023/06/05 07:39:14;;;;;;;20.38;10.60;;;;;;;21.96;60.08;94351.94;5145250;27;20026;-75
2023/06/05 07:41:42;;;;;;;17.30;10.82;;;;;;;22.05;58.45;94351.63;5145358;27;20090;-75
2023/06/05 07:44:12;;;;;;;28.40;11.85;;;;;;;22.14;58.47;94352.09;5145369;27;20082;-74
2023/06/05 07:46:42;;;;;;;17.33;11.40;;;;;;;22.34;57.97;94355.38;5144913;27;20023;-75
2023/06/05 07:49:08;;;;;;;19.02;11.73;;;;;;;22.53;57.43;94359.00;5126804;27;20019;-75
2023/06/05 07:51:35;;;;;;;23.83;12.43;;;;;;;22.59;56.72;94355.59;5145071;27;20023;-75
2023/06/05 07:54:05;;;;;;;21.38;11.15;;;;;;;22.84;57.13;94360.41;5144820;27;20313;-75
2023/06/05 07:56:31;;;;;;;17.27;11.05;;;;;;;22.80;56.60;94363.09;5144805;27;20027;-75
2023/06/05 07:58:57;;;;;;;23.88;10.85;;;;;;;22.75;55.08;94359.94;5144765;27;20287;-72
2023/06/05 08:01:23;;;;;;;27.00;11.82;;;;;;;22.81;55.53;94358.44;5144828;27;20098;-73
2023/06/05 08:03:49;;;;;;;19.27;10.55;;;;;;;23.02;54.84;94365.97;5144175;27;20099;-76
2023/06/05 08:06:15;;;;;;;20.05;10.73;;;;;;;22.95;54.30;94368.63;5144685;27;20015;-76
2023/06/05 08:08:41;;;;;;;19.00;11.15;;;;;;;22.73;55.25;94364.97;5144559;27;20214;-75
2023/06/05 08:11:06;;;;;;;23.20;10.43;;;;;;;22.73;55.46;94370.41;5144857;27;20018;-75
2023/06/05 08:13:32;;;;;;;18.85;12.35;;;;;;;22.82;55.21;94365.44;5126507;27;20019;-75
2023/06/05 08:15:57;;;;;;;21.30;11.57;;;;;;;22.62;54.73;94373.06;5144601;27;20015;-75
2023/06/05 08:18:22;;;;;;;25.13;11.60;;;;;;;22.53;54.73;94365.25;5144456;27;20313;-75
2023/06/05 08:20:48;;;;;;;19.38;11.75;;;;;;;22.35;56.35;94370.53;5144088;27;20015;-75
2023/06/05 08:23:14;;;;;;;22.48;11.00;;;;;;;22.26;55.93;94367.34;5144519;27;20046;-76
2023/06/05 08:25:40;;;;;;;17.63;11.50;;;;;;;22.27;55.99;94366.22;5144465;27;20018;-76
2023/06/05 08:28:05;;;;;;;14.98;10.43;;;;;;;22.16;55.91;94374.22;5144516;27;20019;-76
2023/06/05 08:30:31;;;;;;;15.07;10.38;;;;;;;22.07;56.73;94379.19;5144218;27;20018;-75
2023/06/05 08:32:56;;;;;;;26.88;11.35;;;;;;;22.13;56.82;94380.41;5143915;27;20317;-75
2023/06/05 08:35:22;;;;;;;25.90;12.65;;;;;;;22.08;57.30;94386.16;5125739;27;20046;-75
2023/06/05 08:37:47;;;;;;;21.65;12.13;;;;;;;21.97;56.75;94377.16;5144110;27;20019;-79
2023/06/05 08:40:15;;;;;;;18.17;11.77;;;;;;;21.97;57.37;94383.34;5143958;27;20229;-79
2023/06/05 08:42:40;;;;;;;32.35;12.07;;;;;;;21.96;57.22;94373.66;5144099;27;20046;-80
2023/06/05 08:45:09;;;;;;;22.58;12.20;;;;;;;22.05;57.97;94384.19;5144406;27;20333;-80
2023/06/05 08:47:37;;;;;;;20.27;10.98;;;;;;;22.13;57.49;94380.41;5144377;27;20019;-78
2023/06/05 08:50:05;;;;;;;27.15;12.85;;;;;;;22.20;57.19;94394.03;5144124;27;20049;-76
2023/06/05 08:52:37;;;;;;;20.77;11.30;;;;;;;22.23;56.40;94390.59;5143883;27;20027;-77
2023/06/05 08:55:04;;;;;;;22.55;11.88;;;;;;;22.26;56.94;94383.63;5143714;27;20038;-77
2023/06/05 08:57:31;;;;;;;32.45;11.68;;;;;;;22.27;56.89;94378.97;5143442;27;20030;-77
2023/06/05 08:59:59;;;;;;;18.65;11.50;;;;;;;22.29;56.63;94376.66;5143567;27;20339;-77
2023/06/05 09:02:24;;;;;;;22.02;11.20;;;;;;;22.30;56.51;94383.69;5143275;27;20027;-76
2023/06/05 09:04:51;;;;;;;16.60;10.57;;;;;;;22.22;55.92;94378.13;5143579;27;20197;-76
2023/06/05 09:07:18;;;;;;;16.88;11.70;;;;;;;22.16;56.31;94385.06;5143688;27;20058;-76
2023/06/05 09:09:43;;;;;;;24.33;11.52;;;;;;;22.20;57.35;94394.03;5143909;28;20022;-77
2023/06/05 09:12:09;;;;;;;25.58;12.10;;;;;;;22.19;56.93;94386.28;5143867;28;20019;-78
2023/06/05 09:14:35;;;;;;;26.23;11.60;;;;;;;22.06;57.16;94395.84;5144749;27;20250;-78
2023/06/05 09:17:02;;;;;;;14.35;10.10;;;;;;;21.94;57.42;94392.25;5147791;27;20035;-76
2023/06/05 09:19:40;;;;;;;15.02;11.18;;;;;;;21.79;58.44;94385.09;5147742;27;20019;-78
2023/06/05 09:22:07;;;;;;;20.15;12.02;;;;;;;21.71;59.52;94392.38;5147712;27;20019;-78
2023/06/05 09:24:33;;;;;;;17.77;12.43;;;;;;;21.70;60.51;94388.13;5147620;27;20015;-79
2023/06/05 09:27:05;;;;;;;25.48;11.60;;;;;;;21.74;61.45;94394.34;5147723;27;20035;-77
2023/06/05 09:29:40;;;;;;;24.65;12.90;;;;;;;21.72;62.44;94393.94;5147872;27;20037;-76
2023/06/05 09:32:21;;;;;;;22.42;12.70;;;;;;;21.69;63.55;94394.69;5147675;27;20332;-81
2023/06/05 09:34:59;;;;;;;25.52;13.88;;;;;;;21.62;63.88;94389.97;5147519;27;20015;-78
2023/06/05 09:37:35;;;;;;;20.23;12.85;;;;;;;21.51;62.80;94399.13;5147757;27;20091;-78
2023/06/05 09:40:01;;;;;;;21.75;12.68;;;;;;;21.17;61.92;94396.38;5147593;27;20072;-79
2023/06/05 09:42:35;;;;;;;21.17;11.73;;;;;;;20.81;62.24;94404.00;5129025;27;20023;-79
2023/06/05 09:45:01;;;;;;;21.80;10.65;;;;;;;20.59;63.37;94403.66;5147240;27;20019;-79
2023/06/05 09:47:26;;;;;;;23.88;11.85;;;;;;;20.42;63.73;94396.00;5129196;27;20034;-79
2023/06/05 09:49:52;;;;;;;19.23;13.27;;;;;;;20.33;68.00;94401.66;5129227;27;20011;-77
2023/06/05 09:52:17;;;;;;;26.67;12.90;;;;;;;20.27;70.34;94394.22;5147740;27;20019;-84
2023/06/05 09:54:45;;;;;;;22.00;13.32;;;;;;;20.25;68.16;94389.16;5148270;27;20060;-88
2023/06/05 09:57:12;;;;;;;20.63;12.88;;;;;;;20.29;68.32;94389.22;5147851;27;20038;-87
2023/06/05 10:00:01;;;;;;;20.30;13.15;;;;;;;20.42;70.11;94385.19;5147336;27;20342;-88
2023/06/05 10:02:38;;;;;;;21.55;14.35;;;;;;;20.57;72.53;94381.53;5145740;27;20366;-83
2023/06/05 10:05:07;;;;;;;21.00;13.25;;;;;;;20.69;71.63;94368.97;5127626;27;20366;-83
2023/06/05 10:07:35;;;;;;;20.75;12.85;;;;;;;20.81;70.98;94369.53;5146965;27;20089;-85
2023/06/05 10:10:01;;;;;;;22.33;13.43;;;;;;;20.95;69.59;94368.97;5146961;27;20015;-82
2023/06/05 10:12:30;;;;;;;22.00;14.15;;;;;;;21.08;69.38;94371.44;5146590;27;20031;-83
2023/06/05 10:14:56;;;;;;;26.45;13.82;;;;;;;21.11;68.77;94370.72;5145090;27;20194;-84
2023/06/05 10:17:23;;;;;;;22.83;13.80;;;;;;;21.11;68.67;94376.16;5144823;27;20022;-85
2023/06/05 10:19:49;;;;;;;21.55;12.15;;;;;;;21.19;68.61;94377.81;5144280;27;20224;-83
2023/06/05 10:22:17;;;;;;;20.33;12.75;;;;;;;21.27;67.35;94370.53;5144452;27;20026;-83
2023/06/05 10:24:52;;;;;;;21.58;11.35;;;;;;;21.33;67.14;94379.88;5126491;27;20206;-83
2023/06/05 10:27:36;;;;;;;17.45;11.70;;;;;;;21.37;67.20;94378.81;5144067;27;20034;-82
2023/06/05 10:30:23;;;;;;;16.45;11.00;;;;;;;21.44;65.98;94376.19;5146169;27;20086;-83
2023/06/05 10:33:17;;;;;;;17.17;11.73;;;;;;;21.55;68.20;94370.09;5128122;27;20332;-85
2023/06/05 10:36:16;;;;;;;15.80;10.88;;;;;;;21.64;67.84;94354.34;5146367;27;20019;-84
2023/06/05 10:38:43;;;;;;;16.10;10.00;;;;;;;21.74;67.37;94353.66;5122829;27;20035;-83
2023/06/05 10:41:09;;;;;;;19.23;11.55;;;;;;;21.87;66.78;94362.31;5146335;27;20035;-83
2023/06/05 10:43:55;;;;;;;18.80;10.25;;;;;;;21.99;65.78;94359.31;5146403;27;20019;-84
2023/06/05 10:46:32;;;;;;;16.02;10.32;;;;;;;22.09;64.52;94344.31;5145637;27;20037;-85
2023/06/05 10:49:08;;;;;;;15.48;9.00;;;;;;;22.11;64.51;94350.13;5146188;27;20030;-83
2023/06/05 10:51:40;;;;;;;15.48;10.70;;;;;;;22.19;65.38;94349.03;5146099;27;20023;-85
2023/06/05 10:54:07;;;;;;;14.63;9.15;;;;;;;22.31;63.89;94342.56;5146422;27;20023;-85
2023/06/05 10:56:52;;;;;;;12.57;8.20;;;;;;;22.40;63.99;94345.75;5127618;27;20023;-82
2023/06/05 10:59:22;;;;;;;16.38;8.98;;;;;;;22.57;64.51;94338.91;5145991;27;20047;-84
2023/06/05 11:02:09;;;;;;;14.45;8.93;;;;;;;22.80;63.73;94346.03;5145895;27;20114;-83
2023/06/05 11:04:46;;;;;;;15.20;8.52;;;;;;;22.89;62.92;94340.25;5145732;27;20054;-83
2023/06/05 11:07:22;;;;;;;14.40;8.63;;;;;;;22.97;63.83;94331.72;5145496;27;20023;-83
2023/06/05 11:10:03;;;;;;;12.27;7.88;;;;;;;23.05;63.42;94331.81;5145744;27;20023;-83
2023/06/05 11:12:51;;;;;;;15.98;8.05;;;;;;;23.14;61.25;94327.59;5145753;27;20338;-83
2023/06/05 11:15:36;;;;;;;12.50;8.10;;;;;;;23.20;60.18;94330.69;5145475;27;20042;-82
2023/06/05 11:18:29;;;;;;;12.70;8.02;;;;;;;23.24;60.42;94323.34;5145656;27;20023;-82
2023/06/05 11:20:56;;;;;;;19.88;8.60;;;;;;;23.28;60.11;94331.50;5145376;27;20023;-81
2023/06/05 11:23:27;;;;;;;14.23;7.32;;;;;;;23.31;59.72;94326.09;5145358;27;20047;-83